Главная страница
METAR-TAF:

METAR-TAF

Аэропорты :

Белиз, Белиз

Phillip Goldston

широта: 17-32N, долгота: 088-18W, высота над уровнем моря: 5 м

Текущие метеонаблюдения

Эта сводка был подготовлена 7 минут назад, в 14:00 UTC
Ветер 6 Узел от юго-восточный
Температура 28°C
Влажность 84%
Давление 1015 hPa
Видимость 10 км и более
Рассеянная облачность на высоте 2000 фута

METAR: MZBZ 241400Z 13006KT 9999 BKN020 28/25 A2999 Q1015 NOSIG

Время: 08:07 (14:07 UTC)

Прогноз

Эта сводка был подготовлена 3 часа и 37 минут назад, в 10:30 UTC
Прогноз действительный с 24-го 12 UTC до 25-го 12 UTC
Ветер 8 Узел от восточный
Видимость 10 км и более
Отдельные облака на высоте 2200 фута

TAF: MZBZ 241030Z 2412/2512 10008KT 9999 SCT022

Метеонаблюдения и прогнозы для более 4000 аэропортов (сводки METAR и TAF).

Имеющиеся станции представлены на карте желтыми и красными точками.

Чтобы увидеть название станции, наведите на нее мышь.

Затем щелкните, чтобы увидеть метеонаблюдения и метеопрогнозы.

Управление картой: чтобы увеличить масштаб, щелкните зеленые кнопки с черным крестиком; чтобы уменьшить масштаб, щелкните зеленую кнопку с тире; для просмотра соседних карт щелкайте зеленые стрелки.


METAR-TAF: